createdAt,value
2023-05-08T00:02:04.986Z,22.5
2023-05-08T00:07:58.253Z,22.5
2023-05-08T00:13:49.986Z,22.5
2023-05-08T00:19:41.599Z,22.5
2023-05-08T00:25:33.828Z,22.5
2023-05-08T00:31:25.185Z,22.5
2023-05-08T00:37:01.243Z,22.5
2023-05-08T00:42:52.854Z,22.5
2023-05-08T00:48:45.093Z,22.5
2023-05-08T00:54:04.904Z,22.5
2023-05-08T00:59:25.176Z,22.5
2023-05-08T01:05:18.040Z,22.5
2023-05-08T01:10:37.772Z,22.5
2023-05-08T01:16:28.816Z,22.5
2023-05-08T01:22:20.152Z,22.5
2023-05-08T01:28:11.922Z,22.6
2023-05-08T01:34:03.926Z,22.5
2023-05-08T01:39:55.879Z,22.6
2023-05-08T01:45:32.395Z,22.6
2023-05-08T01:51:23.947Z,22.6
2023-05-08T01:57:16.189Z,22.6
2023-05-08T02:03:08.383Z,22.6
2023-05-08T02:08:59.620Z,22.6
2023-05-08T02:14:51.786Z,22.6
2023-05-08T02:20:43.804Z,22.7
2023-05-08T02:26:35.663Z,22.7
2023-05-08T02:32:27.408Z,22.7
2023-05-08T02:38:26.988Z,22.7
2023-05-08T02:44:18.883Z,22.8
2023-05-08T02:50:13.900Z,22.7
2023-05-08T02:56:05.094Z,22.7
2023-05-08T03:01:56.971Z,22.7
2023-05-08T03:07:49.144Z,22.7
2023-05-08T03:13:40.606Z,22.7
2023-05-08T03:19:32.566Z,22.7
2023-05-08T03:25:24.083Z,22.6
2023-05-08T03:31:15.453Z,22.6
2023-05-08T03:37:07.249Z,22.6
2023-05-08T03:42:58.588Z,22.6
2023-05-08T03:48:50.784Z,22.6
2023-05-08T03:54:42.636Z,22.6
2023-05-08T04:00:34.446Z,22.6
2023-05-08T04:06:27.234Z,22.6
2023-05-08T04:12:25.335Z,22.6
2023-05-08T04:18:19.806Z,22.6
2023-05-08T04:24:11.539Z,22.6
2023-05-08T04:30:03.383Z,22.6
2023-05-08T04:35:55.500Z,22.6
2023-05-08T04:41:48.278Z,22.6
2023-05-08T04:47:40.777Z,22.6
2023-05-08T04:53:32.844Z,22.6
2023-05-08T04:59:23.552Z,22.5
2023-05-08T05:05:15.826Z,22.4
2023-05-08T05:11:07.598Z,22.4
2023-05-08T05:17:00.473Z,22.4
2023-05-08T05:22:52.914Z,22.4
2023-05-08T05:28:44.004Z,22.4
2023-05-08T05:34:35.447Z,22.4
2023-05-08T05:40:28.325Z,22.4
2023-05-08T05:46:22.617Z,22.4
2023-05-08T05:52:14.032Z,23.6
2023-05-08T05:58:06.345Z,28.9
2023-05-08T06:03:58.549Z,26.6
2023-05-08T06:09:51.952Z,25.9
2023-05-08T06:15:46.094Z,31.9
2023-05-08T06:21:38.642Z,32.3
2023-05-08T06:27:29.867Z,32.9
2023-05-08T06:33:23.627Z,32.9
2023-05-08T06:39:17.414Z,33.5
2023-05-08T06:45:18.523Z,34.1
2023-05-08T06:51:11.182Z,35.1
2023-05-08T06:57:03.484Z,35.3
2023-05-08T07:03:04.185Z,35.4
2023-05-08T07:08:56.785Z,34.4
2023-05-08T07:14:49.560Z,34.2
2023-05-08T07:20:59.022Z,34.3
2023-05-08T07:26:51.656Z,34.4
2023-05-08T07:32:45.176Z,34.8
2023-05-08T07:38:22.022Z,35.5
2023-05-08T07:43:59.877Z,36.3
2023-05-08T07:50:03.564Z,37.4
2023-05-08T07:55:56.486Z,37.9
2023-05-08T08:01:33.040Z,38.4
2023-05-08T08:07:26.775Z,39
2023-05-08T08:13:19.003Z,39
2023-05-08T08:19:12.284Z,39.6
2023-05-08T08:25:05.501Z,40.7
2023-05-08T08:31:09.522Z,40.7
2023-05-08T08:37:02.750Z,40.8
2023-05-08T08:42:41.034Z,40.9
2023-05-08T08:48:37.315Z,41
2023-05-08T08:54:29.420Z,41.1
2023-05-08T09:00:22.701Z,40.9
2023-05-08T09:06:18.063Z,40.6
2023-05-08T09:12:10.214Z,40.4
2023-05-08T09:18:07.580Z,40.1
2023-05-08T09:23:45.074Z,39.8
2023-05-08T09:29:37.046Z,38.6
2023-05-08T09:35:31.006Z,38.4
2023-05-08T09:41:23.259Z,38.4
2023-05-08T09:47:16.327Z,38.5
2023-05-08T09:53:11.080Z,38.8
2023-05-08T09:59:03.600Z,39.7
2023-05-08T10:04:56.826Z,40.5
2023-05-08T10:11:09.414Z,40.6
2023-05-08T10:17:01.461Z,40.8
2023-05-08T10:22:52.614Z,40.8
2023-05-08T10:29:00.933Z,40.8
2023-05-08T10:34:53.226Z,41.9
2023-05-08T10:40:45.017Z,43.5
2023-05-08T10:46:38.634Z,44.6
2023-05-08T10:52:30.841Z,45.6
2023-05-08T10:58:23.385Z,46.5
2023-05-08T11:04:30.413Z,47.3
2023-05-08T11:10:22.659Z,48.1
2023-05-08T11:16:14.597Z,48.8
2023-05-08T11:22:17.507Z,49.4
2023-05-08T11:28:09.760Z,50.1
2023-05-08T11:34:02.189Z,50.6
2023-05-08T11:39:54.010Z,51.1
2023-05-08T11:45:45.434Z,51.3
2023-05-08T11:51:41.252Z,51.7
2023-05-08T11:57:20.413Z,51.3
2023-05-08T12:03:30.217Z,51.4
2023-05-08T12:09:22.964Z,52
2023-05-08T12:15:16.490Z,51.5
2023-05-08T12:20:53.667Z,51.3
2023-05-08T12:26:44.887Z,50.7
2023-05-08T12:32:36.845Z,50.2
2023-05-08T12:38:28.551Z,51.3
2023-05-08T12:44:20.689Z,51.7
2023-05-08T12:49:58.386Z,51.4
2023-05-08T12:55:35.173Z,51.3
2023-05-08T13:01:27.189Z,50.7
2023-05-08T13:07:33.206Z,50.4
2023-05-08T13:13:28.593Z,50.3
2023-05-08T13:19:21.538Z,49.8
2023-05-08T13:25:14.136Z,49.1
2023-05-08T13:31:08.920Z,48.4
2023-05-08T13:37:04.691Z,46.1
2023-05-08T13:42:58.177Z,43.3
2023-05-08T13:48:50.224Z,40.7
2023-05-08T13:54:50.139Z,39
2023-05-08T14:00:44.530Z,37.7
2023-05-08T14:06:50.876Z,36.6
2023-05-08T14:12:47.427Z,35.9
2023-05-08T14:18:44.499Z,35.4
2023-05-08T14:24:37.956Z,34.9
2023-05-08T14:30:15.386Z,34.6
2023-05-08T14:35:54.888Z,34.3
2023-05-08T14:41:59.673Z,33.6
2023-05-08T14:47:59.378Z,28.6
2023-05-08T15:15:54.487Z,25.2
2023-05-08T15:21:47.397Z,24.7
2023-05-08T15:27:38.760Z,24.3
2023-05-08T15:33:17.228Z,24
2023-05-08T15:39:13.115Z,23.7
2023-05-08T15:45:15.119Z,23.4
2023-05-08T15:51:09.514Z,23.2
2023-05-08T15:57:02.317Z,23
2023-05-08T16:03:01.716Z,22.8
2023-05-08T16:08:56.291Z,22.6
2023-05-08T16:14:50.479Z,22.4
2023-05-08T16:20:26.881Z,22.3
2023-05-08T16:26:21.142Z,22.2
2023-05-08T16:32:15.000Z,22
2023-05-08T16:38:12.375Z,21.9
2023-05-08T16:44:12.582Z,21.9
2023-05-08T16:49:59.702Z,21.8
2023-05-08T16:55:42.373Z,21.8
2023-05-08T17:01:45.018Z,21.7
2023-05-08T17:07:48.837Z,21.6
2023-05-08T17:13:48.171Z,21.6
2023-05-08T17:19:52.004Z,21.5
2023-05-08T17:25:36.876Z,21.4
2023-05-08T17:31:38.242Z,21.4
2023-05-08T17:37:42.176Z,21.4
2023-05-08T17:43:43.905Z,21.4
2023-05-08T17:49:45.085Z,21.3
2023-05-08T17:55:48.299Z,21.3
2023-05-08T18:01:49.180Z,21.3
2023-05-08T18:07:44.824Z,21.3
2023-05-08T18:13:39.881Z,21.2
2023-05-08T18:19:32.935Z,21.1
2023-05-08T18:25:24.456Z,21
2023-05-08T18:31:19.047Z,20.9
2023-05-08T18:37:14.467Z,20.9
2023-05-08T18:42:50.919Z,20.9
2023-05-08T18:48:45.241Z,20.9
2023-05-08T18:54:38.715Z,20.9
2023-05-08T19:00:30.261Z,20.8
2023-05-08T19:06:25.250Z,20.6
2023-05-08T19:12:17.948Z,20.3
2023-05-08T19:18:10.578Z,20.1
2023-05-08T19:24:04.889Z,20
2023-05-08T19:29:58.299Z,19.9
2023-05-08T19:35:35.640Z,19.8
2023-05-08T19:41:45.333Z,19.8
2023-05-08T19:47:38.964Z,19.8
2023-05-08T19:53:37.205Z,19.7
2023-05-08T19:59:31.813Z,19.7
2023-05-08T20:05:46.773Z,19.6
2023-05-08T20:11:38.336Z,19.6
2023-05-08T20:17:17.103Z,19.6
2023-05-08T20:23:09.881Z,19.6
2023-05-08T20:29:00.900Z,19.6
2023-05-08T20:34:56.090Z,19.6
2023-05-08T20:40:49.170Z,19.6
2023-05-08T20:46:40.079Z,19.6
2023-05-08T20:52:35.299Z,19.6
2023-05-08T20:58:15.881Z,19.5
2023-05-08T21:04:10.714Z,19.6
2023-05-08T21:10:04.698Z,19.5
2023-05-08T21:15:57.070Z,19.5
2023-05-08T21:21:48.585Z,19.5
2023-05-08T21:27:42.576Z,19.5
2023-05-08T21:33:35.265Z,19.5
2023-05-08T21:39:26.626Z,19.5
2023-05-08T21:45:19.877Z,19.5
2023-05-08T21:51:11.444Z,19.5
2023-05-08T21:57:01.439Z,19.5
2023-05-08T22:02:56.299Z,19.5
2023-05-08T22:08:48.646Z,19.5
2023-05-08T22:14:40.266Z,19.5
2023-05-08T22:20:50.856Z,19.5
2023-05-08T22:26:43.139Z,19.5
2023-05-08T22:32:18.672Z,19.4
2023-05-08T22:38:12.156Z,19.5
2023-05-08T22:44:03.916Z,19.4
2023-05-08T22:49:55.178Z,19.5
2023-05-08T22:55:49.582Z,19.4
2023-05-08T23:01:41.611Z,19.4
2023-05-08T23:07:32.296Z,19.5
2023-05-08T23:13:26.012Z,19.4
2023-05-08T23:19:17.747Z,19.5
2023-05-08T23:25:09.902Z,19.5
2023-05-08T23:31:03.288Z,19.5
2023-05-08T23:36:55.363Z,19.4
2023-05-08T23:42:45.560Z,19.5
2023-05-08T23:48:39.343Z,19.4
2023-05-08T23:54:31.852Z,19.4
